This is the latest recevied weather packets stored in our database for station/object KD5VOO. If no packets are shown the sender has not sent any weather packets the latest 1 day(s).
| Time | Temp. | Humidity | Pressure | Rain* | Wind** | Luminosity | Snow |
|---|---|---|---|---|---|---|---|
| 1778010315 | 27.78° C | 52% | 1008.8 hPa | 0 mm | 0.45 m/s, 189° | 64 W/m² | - |
| 1778010010 | 27.78° C | 52% | 1008.8 hPa | 0 mm | 2.24 m/s, 220° | 98 W/m² | - |
| 1778009708 | 27.78° C | 52% | 1008.8 hPa | 0 mm | 2.68 m/s, 231° | 61 W/m² | - |
| 1778009405 | 27.78° C | 52% | 1009.2 hPa | 0 mm | 0.89 m/s, 209° | 52 W/m² | - |
| 1778009103 | 27.78° C | 52% | 1008.8 hPa | 0 mm | 1.34 m/s, 215° | 79 W/m² | - |
| 1778008800 | 27.78° C | 52% | 1008.8 hPa | 0 mm | 1.79 m/s, 202° | 109 W/m² | - |
| 1778008499 | 27.78° C | 52% | 1009.2 hPa | 0 mm | 2.24 m/s, 203° | 107 W/m² | - |
| 1778008196 | 27.78° C | 52% | 1009.2 hPa | 0 mm | 1.34 m/s, 170° | 69 W/m² | - |
| 1778007890 | 27.78° C | 51% | 1009.2 hPa | 0 mm | 0.89 m/s, 211° | 143 W/m² | - |
| 1778007586 | 27.78° C | 52% | 1009.2 hPa | 0 mm | 0.45 m/s, 173° | 106 W/m² | - |
| 1778007284 | 27.78° C | 52% | 1009.2 hPa | 0 mm | 0.89 m/s, 252° | 98 W/m² | - |
| 1778006980 | 27.78° C | 51% | 1009.2 hPa | 0 mm | 0.89 m/s, 197° | 97 W/m² | - |
| 1778006677 | 27.78° C | 52% | 1009.2 hPa | 0 mm | 2.24 m/s, 193° | 154 W/m² | - |
| 1778006373 | 27.78° C | 52% | 1009.2 hPa | 0 mm | 2.68 m/s, 240° | 191 W/m² | - |
| 1778006070 | 27.78° C | 51% | 1009.2 hPa | 0 mm | 0.89 m/s, 176° | 114 W/m² | - |
| 1778005767 | 27.78° C | 52% | 1009.2 hPa | 0 mm | 2.68 m/s, 202° | 214 W/m² | - |
| 1778005464 | 27.78° C | 52% | 1009.2 hPa | 0 mm | 2.68 m/s, 207° | 209 W/m² | - |
| 1778005160 | 27.22° C | 52% | 1009.2 hPa | 0 mm | 1.79 m/s, 197° | 104 W/m² | - |
| 1778004858 | 27.22° C | 52% | 1009.2 hPa | 0 mm | 2.24 m/s, 205° | 214 W/m² | - |
| 1778004554 | 27.22° C | 52% | 1009.2 hPa | 0 mm | 1.34 m/s, 211° | 151 W/m² | - |
| 1778004251 | 27.22° C | 52% | 1009.5 hPa | 0 mm | 1.79 m/s, 181° | 134 W/m² | - |
| 1778003947 | 27.22° C | 52% | 1009.5 hPa | 0 mm | 2.24 m/s, 241° | 102 W/m² | - |
| 1778003644 | 27.22° C | 52% | 1009.5 hPa | 0 mm | 4.47 m/s, 231° | 198 W/m² | - |
| 1778003340 | 27.22° C | 52% | 1009.5 hPa | 0 mm | 1.34 m/s, 181° | 166 W/m² | - |
| 1778003038 | 27.22° C | 52% | 1009.5 hPa | 0 mm | 0.45 m/s, 188° | 102 W/m² | - |
* Rain latest hour (hover to see other rain measurements)
** Current wind speed in m/s (hover to see current wind gust speed)